createdAt,value
2018-01-31T01:52:31.023Z,5.97
2018-01-31T01:55:00.490Z,5.55
2018-01-31T01:57:30.019Z,5.93
2018-01-31T01:59:59.506Z,5.40
2018-01-31T02:02:29.070Z,6.30
2018-01-31T02:04:58.579Z,7.85
2018-01-31T02:07:28.183Z,6.40
2018-01-31T02:09:57.698Z,6.10
2018-01-31T02:12:27.277Z,6.82
2018-01-31T02:14:56.702Z,6.25
2018-01-31T02:17:26.220Z,6.40
2018-01-31T02:19:55.762Z,5.85
2018-01-31T02:22:25.288Z,6.12
2018-01-31T02:24:54.798Z,6.95
2018-01-31T02:27:24.271Z,5.97
2018-01-31T02:29:53.828Z,6.37
2018-01-31T02:32:23.319Z,6.70
2018-01-31T02:34:52.839Z,7.55
2018-01-31T02:37:22.332Z,6.85
2018-01-31T02:39:54.667Z,7.65
2018-01-31T02:42:24.171Z,6.70
2018-01-31T02:44:53.750Z,7.12
2018-01-31T02:47:23.252Z,6.55
2018-01-31T02:49:52.790Z,7.40
2018-01-31T02:52:22.284Z,7.10
2018-01-31T02:54:51.851Z,7.50
2018-01-31T02:57:21.325Z,6.95
2018-01-31T02:59:50.866Z,6.75
2018-01-31T03:02:20.397Z,7.10
2018-01-31T03:04:49.900Z,8.05
2018-01-31T03:07:19.456Z,7.53
2018-01-31T03:09:48.948Z,7.55
2018-01-31T03:12:18.476Z,7.18
2018-01-31T03:14:47.981Z,7.00
2018-01-31T03:17:17.491Z,6.95
2018-01-31T03:19:46.977Z,7.12
2018-01-31T03:22:16.530Z,8.07
2018-01-31T03:24:46.048Z,7.60
2018-01-31T03:27:15.528Z,7.18
2018-01-31T03:29:45.045Z,7.87
2018-01-31T03:32:14.598Z,7.93
2018-01-31T03:34:44.158Z,7.43
2018-01-31T03:37:13.638Z,7.45
2018-01-31T03:39:43.202Z,8.02
2018-01-31T03:42:12.675Z,7.82
2018-01-31T03:44:42.181Z,7.40
2018-01-31T03:47:11.718Z,7.62
2018-01-31T03:49:41.222Z,8.60
2018-01-31T03:52:10.735Z,7.03
2018-01-31T03:54:40.272Z,7.75
2018-01-31T03:57:09.806Z,7.53
2018-01-31T03:59:39.308Z,8.23
2018-01-31T04:02:08.812Z,7.97
2018-01-31T04:04:38.309Z,8.20
2018-01-31T04:07:07.791Z,7.53
2018-01-31T04:09:37.277Z,8.95
2018-01-31T04:12:06.807Z,8.40
2018-01-31T04:14:36.295Z,8.15
2018-01-31T04:17:05.877Z,8.05
2018-01-31T04:19:35.349Z,8.48
2018-01-31T04:22:04.860Z,8.45
2018-01-31T04:24:34.350Z,7.80
2018-01-31T04:27:03.919Z,7.97
2018-01-31T04:29:33.508Z,8.55
2018-01-31T04:32:03.013Z,8.38
2018-01-31T04:34:32.484Z,7.75
2018-01-31T04:37:02.012Z,7.12
2018-01-31T04:39:31.539Z,8.45
2018-01-31T04:42:01.011Z,8.52
2018-01-31T04:44:30.534Z,8.35
2018-01-31T04:47:00.156Z,9.05
2018-01-31T04:49:29.648Z,7.68
2018-01-31T04:51:59.217Z,8.80
2018-01-31T04:54:28.779Z,8.75
2018-01-31T04:56:58.260Z,8.65
2018-01-31T04:59:27.786Z,8.02
2018-01-31T05:01:57.380Z,7.75
2018-01-31T05:04:26.993Z,8.50
2018-01-31T05:06:56.442Z,7.37
2018-01-31T05:09:25.968Z,9.35
2018-01-31T05:11:55.528Z,8.50
2018-01-31T05:14:25.060Z,8.73
2018-01-31T05:16:54.579Z,8.18
2018-01-31T05:19:24.065Z,8.20
2018-01-31T05:21:53.590Z,8.43
2018-01-31T05:24:23.074Z,8.60
2018-01-31T05:26:52.617Z,9.05
2018-01-31T05:29:22.110Z,8.68
2018-01-31T05:31:51.636Z,9.13
2018-01-31T05:34:21.122Z,8.88
2018-01-31T05:36:50.766Z,8.73
2018-01-31T05:39:20.271Z,9.13
2018-01-31T05:41:49.800Z,9.55
2018-01-31T05:44:19.288Z,9.43
2018-01-31T05:46:48.823Z,8.68
2018-01-31T05:49:18.329Z,10.65
2018-01-31T05:51:47.873Z,9.75
2018-01-31T05:54:17.368Z,8.30
2018-01-31T05:56:46.892Z,9.80
2018-01-31T05:59:16.390Z,8.38
2018-01-31T06:01:45.899Z,9.00
2018-01-31T06:04:15.564Z,9.55
2018-01-31T06:06:45.038Z,8.57
2018-01-31T06:09:14.573Z,8.90
2018-01-31T06:11:44.155Z,9.40
2018-01-31T06:14:13.672Z,10.48
2018-01-31T06:16:43.166Z,9.95
2018-01-31T06:19:12.704Z,9.45
2018-01-31T06:21:42.227Z,9.10
2018-01-31T06:24:11.742Z,9.73
2018-01-31T06:26:41.255Z,9.00
2018-01-31T06:29:10.750Z,9.20
2018-01-31T06:31:40.262Z,9.10
2018-01-31T06:34:09.746Z,8.15
2018-01-31T06:36:39.361Z,9.13
2018-01-31T06:39:08.905Z,8.23
2018-01-31T06:41:38.382Z,8.07
2018-01-31T06:44:07.892Z,9.15
2018-01-31T06:46:37.492Z,9.75
2018-01-31T06:49:06.986Z,9.07
2018-01-31T06:51:36.542Z,9.70
2018-01-31T06:54:06.055Z,8.18
2018-01-31T06:56:35.567Z,8.35
2018-01-31T06:59:05.169Z,7.95
2018-01-31T07:01:34.688Z,8.52
2018-01-31T07:04:04.261Z,6.68
2018-01-31T07:06:33.844Z,7.00
2018-01-31T07:09:03.366Z,7.60
2018-01-31T07:11:32.904Z,7.85
2018-01-31T07:14:02.393Z,7.37
2018-01-31T07:16:31.927Z,7.15
2018-01-31T07:19:01.403Z,7.45
2018-01-31T07:21:30.975Z,7.25
2018-01-31T07:24:00.443Z,7.97
2018-01-31T07:26:29.963Z,7.80
2018-01-31T07:28:59.510Z,7.65
2018-01-31T07:31:29.018Z,7.07
2018-01-31T07:33:58.505Z,6.32
2018-01-31T07:36:28.146Z,6.47
2018-01-31T07:38:57.622Z,6.30
2018-01-31T07:41:27.149Z,6.47
2018-01-31T07:43:56.699Z,6.07
2018-01-31T07:46:26.335Z,5.30
2018-01-31T07:48:55.814Z,5.32
2018-01-31T07:51:25.357Z,4.80
2018-01-31T07:53:54.839Z,5.20
2018-01-31T07:56:24.357Z,4.78
2018-01-31T07:58:53.847Z,4.50
2018-01-31T08:01:23.383Z,4.43
2018-01-31T08:03:52.861Z,4.40
2018-01-31T08:06:22.347Z,6.07
2018-01-31T08:08:51.898Z,5.15
2018-01-31T08:11:21.403Z,4.22
2018-01-31T08:13:50.892Z,3.37
2018-01-31T08:16:20.403Z,4.20
2018-01-31T08:18:49.914Z,3.90
2018-01-31T08:21:19.423Z,4.93
2018-01-31T08:23:48.946Z,4.37
2018-01-31T08:26:18.478Z,3.97
2018-01-31T08:28:47.983Z,4.87
2018-01-31T08:31:17.543Z,3.30
2018-01-31T08:33:47.056Z,3.60
2018-01-31T08:36:16.539Z,3.78
2018-01-31T08:38:46.565Z,3.40
2018-01-31T08:41:16.056Z,3.10
2018-01-31T08:43:45.593Z,3.37
2018-01-31T08:46:15.096Z,2.40
2018-01-31T08:48:44.630Z,2.70
2018-01-31T08:51:14.121Z,6.22
2018-01-31T08:53:43.623Z,4.95
2018-01-31T08:56:13.133Z,4.53
2018-01-31T08:58:42.687Z,2.70
2018-01-31T09:01:12.185Z,4.80
2018-01-31T09:03:41.827Z,4.32
2018-01-31T09:06:11.324Z,2.60
2018-01-31T09:08:40.860Z,2.00
2018-01-31T09:11:10.411Z,2.20
2018-01-31T09:13:39.958Z,2.20
2018-01-31T09:16:09.511Z,1.70
2018-01-31T09:18:38.975Z,1.70
2018-01-31T09:21:08.509Z,1.70
2018-01-31T09:23:38.201Z,1.52
2018-01-31T09:26:07.696Z,1.50
2018-01-31T09:28:37.220Z,1.35
2018-01-31T09:31:06.754Z,1.20
2018-01-31T09:33:36.360Z,1.70
2018-01-31T09:36:05.878Z,1.45
2018-01-31T09:38:35.406Z,1.52
2018-01-31T09:41:04.917Z,1.50
2018-01-31T09:43:34.421Z,1.20
2018-01-31T09:46:03.931Z,1.42
2018-01-31T09:48:33.452Z,1.25
2018-01-31T09:51:02.938Z,1.02
2018-01-31T09:53:32.431Z,1.10
2018-01-31T09:56:01.937Z,1.05
2018-01-31T09:58:31.483Z,0.80
2018-01-31T10:01:00.991Z,1.15
2018-01-31T10:03:30.462Z,1.10
2018-01-31T10:06:00.000Z,1.12
2018-01-31T10:08:29.531Z,1.50
2018-01-31T10:10:59.051Z,0.90
2018-01-31T10:13:28.612Z,1.00
2018-01-31T10:15:58.214Z,1.00
2018-01-31T10:18:27.741Z,0.85
2018-01-31T10:20:57.202Z,0.95
2018-01-31T10:23:26.766Z,1.00
2018-01-31T10:25:56.303Z,1.87
2018-01-31T10:28:25.841Z,1.52
2018-01-31T10:30:55.323Z,1.00
2018-01-31T10:33:24.853Z,1.10
2018-01-31T10:35:54.361Z,1.10
2018-01-31T10:38:23.933Z,1.95
2018-01-31T10:40:53.437Z,1.27
2018-01-31T10:43:22.976Z,0.90
2018-01-31T10:45:52.492Z,0.90
2018-01-31T10:48:21.970Z,2.47
2018-01-31T10:50:51.475Z,5.80
2018-01-31T10:53:20.989Z,1.20
2018-01-31T10:58:20.044Z,1.00
2018-01-31T11:00:49.523Z,0.90
2018-01-31T11:03:18.999Z,0.80
2018-01-31T11:05:48.520Z,0.80
2018-01-31T11:08:17.999Z,1.02
2018-01-31T11:10:47.526Z,1.00
2018-01-31T11:13:17.052Z,1.77
2018-01-31T11:15:46.691Z,0.80
2018-01-31T11:18:16.208Z,0.77
2018-01-31T11:20:45.733Z,1.70
2018-01-31T11:23:15.241Z,1.60
2018-01-31T11:25:44.764Z,5.80
2018-01-31T11:28:14.246Z,1.85
2018-01-31T11:30:43.766Z,1.40
2018-01-31T11:33:13.265Z,1.27
2018-01-31T11:35:42.808Z,1.50
2018-01-31T11:38:12.274Z,2.53
2018-01-31T11:40:41.812Z,1.90
2018-01-31T11:43:11.317Z,1.60
2018-01-31T11:45:40.839Z,0.90
2018-01-31T11:48:10.367Z,1.35
2018-01-31T11:50:39.908Z,0.80
2018-01-31T11:53:09.402Z,0.90
2018-01-31T11:55:38.930Z,0.90
2018-01-31T11:58:08.434Z,1.40
2018-01-31T12:00:43.893Z,1.20
2018-01-31T12:03:13.443Z,0.90
2018-01-31T12:05:43.063Z,0.80
2018-01-31T12:08:12.574Z,1.00
2018-01-31T12:10:42.081Z,0.80
2018-01-31T12:13:17.546Z,1.35
2018-01-31T12:15:52.923Z,1.48
2018-01-31T12:18:28.221Z,0.80
2018-01-31T12:21:03.678Z,1.12
2018-01-31T12:23:39.019Z,0.90
2018-01-31T12:26:14.316Z,1.00
2018-01-31T12:29:02.502Z,1.50
2018-01-31T12:31:37.833Z,1.15
2018-01-31T12:34:13.310Z,1.30
2018-01-31T12:36:48.696Z,1.92
2018-01-31T12:39:17.979Z,0.85
2018-01-31T12:41:47.245Z,0.80
2018-01-31T12:44:16.480Z,0.80
2018-01-31T12:46:51.770Z,0.70
2018-01-31T12:49:27.040Z,0.80
2018-01-31T12:51:56.555Z,0.70
2018-01-31T12:54:31.837Z,0.75
2018-01-31T12:57:07.283Z,0.80
2018-01-31T12:59:42.550Z,0.90
2018-01-31T13:02:17.862Z,0.80
2018-01-31T13:04:53.388Z,0.70
2018-01-31T13:07:23.003Z,1.77
2018-01-31T13:09:58.360Z,1.00
2018-01-31T13:12:33.863Z,0.90
2018-01-31T13:15:10.179Z,1.40
2018-01-31T13:17:45.520Z,0.90
2018-01-31T13:20:21.021Z,1.00
2018-01-31T13:23:03.524Z,1.40
2018-01-31T13:25:38.811Z,1.10
2018-01-31T13:28:20.009Z,0.85
2018-01-31T13:30:49.691Z,1.42
2018-01-31T13:33:25.177Z,1.00
2018-01-31T13:36:00.381Z,0.95
2018-01-31T13:38:35.775Z,1.35
2018-01-31T13:41:11.104Z,0.90
2018-01-31T13:43:46.536Z,0.80
2018-01-31T13:46:21.948Z,0.80
2018-01-31T13:48:57.305Z,0.70
2018-01-31T13:51:32.777Z,0.88
2018-01-31T13:54:08.223Z,0.85
2018-01-31T13:56:43.523Z,0.80
2018-01-31T13:59:19.332Z,2.08
2018-01-31T14:01:55.125Z,0.80
2018-01-31T14:04:30.654Z,0.88
2018-01-31T14:07:06.143Z,0.90
2018-01-31T14:09:41.468Z,0.85
2018-01-31T14:12:16.793Z,0.80
2018-01-31T14:14:52.161Z,0.80
2018-01-31T14:17:27.510Z,0.70
2018-01-31T14:20:02.805Z,0.70
2018-01-31T14:22:38.075Z,0.75
2018-01-31T14:25:13.404Z,0.70
2018-01-31T14:27:48.706Z,0.70
2018-01-31T14:30:24.138Z,0.70
2018-01-31T14:32:59.542Z,0.60
2018-01-31T14:35:34.866Z,0.70
2018-01-31T14:38:04.124Z,0.75
2018-01-31T14:40:33.360Z,0.70
2018-01-31T14:43:02.635Z,0.70
2018-01-31T14:45:31.892Z,0.90
2018-01-31T14:48:01.103Z,0.60
2018-01-31T14:50:30.450Z,0.75
2018-01-31T14:52:59.672Z,0.70
2018-01-31T14:55:28.988Z,0.85
2018-01-31T14:57:58.214Z,0.80
2018-01-31T15:00:27.479Z,0.75
2018-01-31T15:02:56.712Z,0.80
2018-01-31T15:05:25.990Z,0.73
2018-01-31T15:07:55.233Z,0.80
2018-01-31T15:10:24.488Z,0.75
2018-01-31T15:12:53.705Z,0.80
2018-01-31T15:15:22.968Z,0.80
2018-01-31T15:17:52.316Z,0.70
2018-01-31T15:20:21.538Z,0.70
2018-01-31T15:22:50.846Z,0.70
2018-01-31T15:25:20.199Z,0.80
2018-01-31T15:27:49.448Z,0.73
2018-01-31T15:30:18.681Z,0.82
2018-01-31T15:32:47.969Z,0.75
2018-01-31T15:35:17.249Z,0.90
2018-01-31T15:37:46.489Z,0.70
2018-01-31T15:40:15.761Z,0.85
2018-01-31T15:42:45.017Z,1.10
2018-01-31T15:45:14.297Z,1.40
2018-01-31T15:47:43.522Z,1.20
2018-01-31T15:50:12.870Z,1.30
2018-01-31T15:52:42.087Z,0.98
2018-01-31T15:55:11.376Z,1.00
2018-01-31T15:57:40.636Z,1.20
2018-01-31T16:00:09.868Z,1.87
2018-01-31T16:02:39.148Z,1.27
2018-01-31T16:05:08.487Z,2.20
2018-01-31T16:07:37.702Z,1.20
2018-01-31T16:10:07.005Z,2.03
2018-01-31T16:12:36.238Z,1.73
2018-01-31T16:15:05.547Z,1.30
2018-01-31T16:17:35.048Z,1.77
2018-01-31T16:20:10.515Z,1.40
2018-01-31T16:22:39.988Z,1.30
2018-01-31T16:25:09.520Z,1.00
2018-01-31T16:27:44.823Z,1.20
2018-01-31T16:30:20.433Z,1.50
2018-01-31T16:32:55.981Z,1.02
2018-01-31T16:35:25.473Z,0.90
2018-01-31T16:37:55.005Z,1.08
2018-01-31T16:40:24.537Z,1.10
2018-01-31T16:42:54.008Z,0.93
2018-01-31T16:45:23.516Z,0.90
2018-01-31T16:47:52.979Z,1.10
2018-01-31T16:50:22.583Z,1.25
2018-01-31T16:52:52.046Z,1.20
2018-01-31T16:55:21.531Z,1.25
2018-01-31T16:57:51.050Z,1.23
2018-01-31T17:00:20.618Z,1.62
2018-01-31T17:02:50.942Z,1.80
2018-01-31T17:05:20.471Z,1.17
2018-01-31T17:07:49.944Z,1.35
2018-01-31T17:10:19.427Z,1.37
2018-01-31T17:12:48.956Z,1.98
2018-01-31T17:15:18.481Z,1.33
2018-01-31T17:17:47.986Z,1.40
2018-01-31T17:20:17.544Z,1.50
2018-01-31T17:22:47.098Z,1.20
2018-01-31T17:25:16.597Z,1.58
2018-01-31T17:27:46.144Z,1.40
2018-01-31T17:30:15.725Z,1.30
2018-01-31T17:32:45.223Z,1.50
2018-01-31T17:35:14.740Z,1.50
2018-01-31T17:37:44.247Z,1.75
2018-01-31T17:40:13.746Z,1.73
2018-01-31T17:42:43.239Z,2.40
2018-01-31T17:45:12.747Z,1.60
2018-01-31T17:47:42.335Z,1.20
2018-01-31T17:50:11.853Z,1.85
2018-01-31T17:52:41.328Z,2.00
2018-01-31T17:55:10.905Z,3.60
2018-01-31T17:57:40.498Z,2.85
2018-01-31T18:00:09.991Z,1.80
2018-01-31T18:02:39.462Z,1.58
2018-01-31T18:05:08.996Z,1.70
2018-01-31T18:07:38.467Z,1.60
2018-01-31T18:10:07.990Z,1.73
2018-01-31T18:12:37.533Z,1.60
2018-01-31T18:15:07.065Z,1.80
2018-01-31T18:17:36.542Z,1.83
2018-01-31T18:20:06.077Z,2.50
2018-01-31T18:22:35.557Z,1.50
2018-01-31T18:25:05.052Z,1.90
2018-01-31T18:27:34.589Z,1.35
2018-01-31T18:30:04.114Z,1.45
2018-01-31T18:32:33.584Z,1.98
2018-01-31T18:35:03.248Z,1.70
2018-01-31T18:37:32.819Z,1.40
2018-01-31T18:40:02.327Z,1.75
2018-01-31T18:42:31.816Z,1.40
2018-01-31T18:45:01.322Z,1.25
2018-01-31T18:47:30.918Z,1.35
2018-01-31T18:50:00.501Z,1.30
2018-01-31T18:52:30.093Z,1.35
2018-01-31T18:54:59.720Z,1.23
2018-01-31T18:57:29.298Z,1.23
2018-01-31T18:59:58.812Z,2.22
2018-01-31T19:02:28.318Z,1.40
2018-01-31T19:04:57.788Z,1.60
2018-01-31T19:07:27.335Z,1.60
2018-01-31T19:09:56.825Z,1.98
2018-01-31T19:12:26.285Z,1.50
2018-01-31T19:14:56.542Z,1.55
2018-01-31T19:17:26.008Z,1.85
2018-01-31T19:19:55.535Z,1.55
2018-01-31T19:22:25.018Z,1.50
2018-01-31T19:24:54.576Z,1.30
2018-01-31T19:27:24.111Z,1.42
2018-01-31T19:29:53.798Z,1.40
2018-01-31T19:32:23.320Z,1.48
2018-01-31T19:34:53.562Z,1.30
2018-01-31T19:37:23.106Z,1.40
2018-01-31T19:39:52.582Z,1.50
2018-01-31T19:42:22.111Z,1.40
2018-01-31T19:44:51.580Z,1.40
2018-01-31T19:47:21.110Z,1.20
2018-01-31T19:49:50.650Z,1.45
2018-01-31T19:52:20.186Z,1.50
2018-01-31T19:54:49.654Z,1.37
2018-01-31T19:57:19.191Z,11.00
2018-01-31T19:59:48.852Z,3.35
2018-01-31T20:02:19.270Z,2.40
2018-01-31T20:04:48.821Z,2.10
2018-01-31T20:07:18.334Z,4.10
2018-01-31T20:09:47.878Z,3.28
2018-01-31T20:12:17.366Z,2.60
2018-01-31T20:14:46.890Z,1.80
2018-01-31T20:17:16.384Z,1.37
2018-01-31T20:19:45.929Z,1.90
2018-01-31T20:22:15.453Z,1.87
2018-01-31T20:24:45.022Z,1.62
2018-01-31T20:27:15.500Z,1.83
2018-01-31T20:29:45.241Z,1.30
2018-01-31T20:32:14.750Z,1.95
2018-01-31T20:34:44.243Z,2.20
2018-01-31T20:37:13.736Z,2.22
2018-01-31T20:39:43.275Z,2.28
2018-01-31T20:42:12.773Z,1.83
2018-01-31T20:44:42.295Z,1.60
2018-01-31T20:47:11.797Z,1.40
2018-01-31T20:49:41.337Z,3.87
2018-01-31T20:52:10.837Z,3.90
2018-01-31T20:54:40.378Z,3.15
2018-01-31T20:57:09.900Z,2.45
2018-01-31T20:59:39.427Z,2.55
2018-01-31T21:02:09.014Z,2.15
2018-01-31T21:04:38.542Z,2.60
2018-01-31T21:07:08.146Z,1.67
2018-01-31T21:09:37.717Z,1.50
2018-01-31T21:12:07.194Z,1.10
2018-01-31T21:14:36.715Z,1.20
2018-01-31T21:17:06.225Z,1.10
2018-01-31T21:19:35.666Z,1.20
2018-01-31T21:22:05.184Z,1.20
2018-01-31T21:24:34.695Z,1.10
2018-01-31T21:27:04.221Z,1.05
2018-01-31T21:29:33.678Z,1.30
2018-01-31T21:32:03.174Z,1.30
2018-01-31T21:34:32.637Z,1.10
2018-01-31T21:37:02.132Z,0.90
2018-01-31T21:39:31.657Z,1.10
2018-01-31T21:42:01.165Z,1.20
2018-01-31T21:44:30.686Z,1.30
2018-01-31T21:47:00.163Z,1.00
2018-01-31T21:49:29.664Z,1.05
2018-01-31T21:51:59.131Z,1.10
2018-01-31T21:54:28.647Z,1.30
2018-01-31T21:56:58.118Z,3.10
2018-01-31T21:59:27.659Z,2.00
2018-01-31T22:01:57.198Z,1.60
2018-01-31T22:04:26.719Z,1.58
2018-01-31T22:06:56.173Z,1.50
2018-01-31T22:09:25.686Z,1.30
2018-01-31T22:11:55.155Z,1.37
2018-01-31T22:14:24.643Z,1.50
2018-01-31T22:16:54.184Z,1.35
2018-01-31T22:19:23.697Z,1.65
2018-01-31T22:21:53.138Z,1.40
2018-01-31T22:24:22.666Z,1.48
2018-01-31T22:26:52.117Z,1.85
2018-01-31T22:29:21.632Z,1.60
2018-01-31T22:31:51.113Z,3.28
2018-01-31T22:34:20.600Z,1.95
2018-01-31T22:36:50.066Z,1.50
2018-01-31T22:39:19.636Z,1.62
2018-01-31T22:41:49.134Z,1.60
2018-01-31T22:44:18.628Z,1.65
2018-01-31T22:46:48.084Z,1.77
2018-01-31T22:49:17.591Z,1.65
2018-01-31T22:51:47.216Z,1.80
2018-01-31T22:54:16.716Z,1.87
2018-01-31T22:56:46.190Z,2.10
2018-01-31T22:59:15.692Z,2.25
2018-01-31T23:01:45.232Z,2.40
2018-01-31T23:04:14.732Z,2.30
2018-01-31T23:06:44.221Z,2.50
2018-01-31T23:09:13.750Z,2.47
2018-01-31T23:11:43.276Z,2.40
2018-01-31T23:14:18.656Z,2.22
2018-01-31T23:16:48.167Z,2.90
2018-01-31T23:19:17.679Z,2.20
2018-01-31T23:21:47.185Z,3.20
2018-01-31T23:24:16.656Z,2.42
2018-01-31T23:26:46.145Z,2.87
2018-01-31T23:29:15.595Z,2.70
2018-01-31T23:31:45.102Z,3.40
2018-01-31T23:34:14.556Z,2.92
2018-01-31T23:36:44.077Z,3.20
2018-01-31T23:39:13.582Z,3.28
2018-01-31T23:41:43.092Z,3.15
2018-01-31T23:44:12.555Z,2.50
2018-01-31T23:46:42.060Z,2.90
2018-01-31T23:49:11.542Z,3.10
2018-01-31T23:51:41.247Z,2.87
2018-01-31T23:54:10.700Z,3.20
2018-01-31T23:56:40.200Z,3.33
2018-01-31T23:59:09.675Z,3.95
